createdAt,value
2022-10-07T00:01:17.990Z,3.67
2022-10-07T00:03:46.447Z,3.53
2022-10-07T00:06:18.613Z,3.07
2022-10-07T00:08:48.902Z,3.07
2022-10-07T00:11:20.857Z,2.87
2022-10-07T00:13:52.633Z,3.17
2022-10-07T00:16:24.458Z,3.00
2022-10-07T00:18:54.525Z,3.07
2022-10-07T00:21:25.838Z,3.17
2022-10-07T00:23:54.525Z,3.67
2022-10-07T00:26:25.365Z,3.33
2022-10-07T00:28:53.867Z,3.30
2022-10-07T00:31:23.995Z,3.47
2022-10-07T00:33:53.366Z,3.13
2022-10-07T00:36:24.638Z,3.93
2022-10-07T00:38:56.017Z,3.43
2022-10-07T00:41:26.337Z,3.83
2022-10-07T00:43:55.414Z,3.23
2022-10-07T00:46:29.689Z,3.50
2022-10-07T00:49:01.925Z,4.70
2022-10-07T00:51:33.521Z,2.93
2022-10-07T00:54:04.896Z,3.30
2022-10-07T00:56:34.964Z,3.73
2022-10-07T00:59:03.616Z,3.63
2022-10-07T01:01:32.225Z,3.27
2022-10-07T01:04:00.812Z,3.67
2022-10-07T01:06:30.042Z,3.03
2022-10-07T01:08:59.875Z,3.27
2022-10-07T01:11:40.523Z,3.30
2022-10-07T01:14:16.606Z,3.70
2022-10-07T01:16:55.341Z,3.03
2022-10-07T01:19:41.961Z,3.50
2022-10-07T01:22:22.856Z,3.40
2022-10-07T01:25:04.156Z,3.40
2022-10-07T01:27:38.344Z,3.60
2022-10-07T01:30:09.318Z,3.50
2022-10-07T01:32:41.692Z,4.47
2022-10-07T01:35:18.158Z,3.53
2022-10-07T01:37:51.504Z,3.40
2022-10-07T01:40:23.540Z,3.77
2022-10-07T01:42:54.159Z,3.77
2022-10-07T01:45:24.560Z,3.60
2022-10-07T01:47:53.399Z,3.73
2022-10-07T01:50:24.918Z,3.57
2022-10-07T01:53:12.548Z,4.13
2022-10-07T01:55:52.754Z,4.17
2022-10-07T01:58:34.361Z,3.60
2022-10-07T02:01:13.245Z,4.37
2022-10-07T02:04:07.656Z,3.60
2022-10-07T02:06:44.218Z,4.27
2022-10-07T02:09:21.622Z,3.80
2022-10-07T02:11:58.268Z,3.27
2022-10-07T02:14:39.535Z,3.73
2022-10-07T02:17:14.218Z,3.67
2022-10-07T02:19:47.693Z,3.50
2022-10-07T02:22:19.304Z,4.03
2022-10-07T02:24:49.358Z,3.23
2022-10-07T02:27:24.515Z,4.10
2022-10-07T02:30:02.315Z,4.17
2022-10-07T02:32:36.526Z,4.60
2022-10-07T02:35:14.228Z,4.13
2022-10-07T02:37:45.011Z,4.00
2022-10-07T02:40:13.979Z,3.67
2022-10-07T02:42:53.017Z,3.23
2022-10-07T02:45:29.547Z,4.80
2022-10-07T02:48:01.554Z,3.80
2022-10-07T02:50:38.763Z,4.47
2022-10-07T02:53:08.189Z,3.87
2022-10-07T02:55:37.229Z,3.60
2022-10-07T02:58:09.739Z,4.37
2022-10-07T03:00:43.859Z,4.27
2022-10-07T03:03:12.546Z,4.53
2022-10-07T03:05:53.935Z,4.23
2022-10-07T03:08:23.353Z,4.53
2022-10-07T03:10:52.797Z,4.23
2022-10-07T03:13:21.316Z,4.67
2022-10-07T03:15:55.762Z,4.03
2022-10-07T03:18:28.494Z,4.40
2022-10-07T03:21:16.178Z,3.80
2022-10-07T03:23:45.159Z,4.47
2022-10-07T03:26:14.338Z,4.43
2022-10-07T03:28:43.875Z,4.00
2022-10-07T03:31:15.527Z,4.07
2022-10-07T03:33:49.050Z,4.63
2022-10-07T03:36:19.303Z,3.97
2022-10-07T03:38:49.050Z,4.10
2022-10-07T03:41:17.883Z,4.03
2022-10-07T03:43:46.884Z,3.53
2022-10-07T03:46:22.249Z,4.27
2022-10-07T03:48:52.322Z,4.23
2022-10-07T03:51:21.497Z,3.80
2022-10-07T03:53:50.040Z,3.90
2022-10-07T03:56:18.609Z,5.03
2022-10-07T03:58:47.168Z,4.07
2022-10-07T04:01:16.353Z,3.67
2022-10-07T04:03:50.921Z,3.93
2022-10-07T04:06:20.056Z,3.73
2022-10-07T04:08:52.861Z,3.60
2022-10-07T04:11:21.891Z,3.40
2022-10-07T04:13:52.884Z,4.13
2022-10-07T04:16:24.207Z,3.50
2022-10-07T04:18:57.411Z,3.63
2022-10-07T04:21:28.249Z,3.90
2022-10-07T04:23:56.711Z,4.10
2022-10-07T04:26:25.169Z,3.23
2022-10-07T04:28:53.585Z,3.90
2022-10-07T04:31:24.642Z,3.03
2022-10-07T04:34:02.448Z,3.33
2022-10-07T04:36:35.566Z,3.27
2022-10-07T04:39:07.304Z,3.07
2022-10-07T04:41:38.934Z,3.33
2022-10-07T04:44:12.652Z,3.10
2022-10-07T04:46:49.112Z,4.03
2022-10-07T04:49:20.709Z,3.30
2022-10-07T04:51:49.604Z,4.50
2022-10-07T04:54:18.228Z,2.90
2022-10-07T04:56:50.889Z,3.13
2022-10-07T04:59:24.146Z,3.87
2022-10-07T05:01:55.943Z,2.93
2022-10-07T05:04:26.678Z,3.53
2022-10-07T05:06:55.990Z,2.90
2022-10-07T05:09:25.991Z,2.83
2022-10-07T05:11:55.584Z,3.23
2022-10-07T05:14:25.074Z,3.17
2022-10-07T05:16:54.186Z,2.33
2022-10-07T05:19:27.673Z,3.23
2022-10-07T05:21:56.725Z,3.30
2022-10-07T05:24:27.445Z,3.37
2022-10-07T05:26:56.208Z,3.73
2022-10-07T05:29:24.993Z,2.63
2022-10-07T05:31:55.557Z,2.70
2022-10-07T05:34:28.566Z,2.90
2022-10-07T05:36:57.154Z,3.60
2022-10-07T05:39:25.664Z,2.63
2022-10-07T05:41:59.015Z,2.43
2022-10-07T05:44:32.961Z,3.90
2022-10-07T05:47:03.625Z,3.87
2022-10-07T05:49:35.965Z,3.13
2022-10-07T05:52:05.696Z,2.80
2022-10-07T05:54:35.113Z,3.20
2022-10-07T05:57:04.718Z,4.20
2022-10-07T05:59:33.991Z,4.00
2022-10-07T06:02:02.552Z,3.30
2022-10-07T06:04:31.260Z,2.43
2022-10-07T06:07:04.047Z,3.17
2022-10-07T06:09:50.254Z,3.37
2022-10-07T06:12:37.290Z,3.63
2022-10-07T06:15:11.814Z,3.90
2022-10-07T06:17:45.638Z,4.37
2022-10-07T06:20:17.170Z,4.83
2022-10-07T06:22:48.083Z,4.67
2022-10-07T06:25:18.656Z,4.60
2022-10-07T06:27:53.810Z,3.40
2022-10-07T06:30:23.489Z,3.93
2022-10-07T06:32:52.167Z,2.97
2022-10-07T06:35:20.707Z,3.07
2022-10-07T06:37:52.583Z,2.57
2022-10-07T06:40:20.984Z,2.87
2022-10-07T06:42:49.409Z,2.50
2022-10-07T06:45:20.475Z,2.60
2022-10-07T06:47:53.453Z,3.77
2022-10-07T06:50:23.673Z,2.37
2022-10-07T06:52:53.546Z,3.00
2022-10-07T06:55:22.563Z,2.87
2022-10-07T06:57:51.035Z,3.10
2022-10-07T07:00:21.280Z,2.93
2022-10-07T07:02:50.578Z,2.30
2022-10-07T07:05:19.255Z,3.07
2022-10-07T07:07:49.372Z,2.50
2022-10-07T07:10:19.962Z,3.00
2022-10-07T07:12:54.649Z,2.63
2022-10-07T07:15:23.429Z,2.73
2022-10-07T07:17:51.875Z,3.07
2022-10-07T07:20:21.492Z,3.50
2022-10-07T07:22:52.288Z,2.60
2022-10-07T07:25:22.502Z,2.40
2022-10-07T07:27:56.753Z,2.07
2022-10-07T07:30:26.422Z,3.23
2022-10-07T07:32:57.861Z,2.53
2022-10-07T07:35:27.906Z,1.97
2022-10-07T07:37:56.376Z,1.83
2022-10-07T07:40:27.280Z,2.40
2022-10-07T07:42:56.095Z,2.63
2022-10-07T07:45:25.352Z,2.63
2022-10-07T07:47:53.821Z,2.93
2022-10-07T07:50:27.061Z,2.50
2022-10-07T07:52:57.596Z,1.77
2022-10-07T07:55:27.989Z,2.10
2022-10-07T07:57:56.606Z,2.23
2022-10-07T08:00:25.444Z,2.00
2022-10-07T08:03:02.055Z,2.37
2022-10-07T08:05:30.946Z,1.73
2022-10-07T08:08:01.331Z,2.30
2022-10-07T08:10:31.625Z,1.97
2022-10-07T08:13:00.591Z,2.50
2022-10-07T08:15:29.215Z,1.77
2022-10-07T08:17:57.835Z,2.23
2022-10-07T08:20:26.425Z,2.80
2022-10-07T08:22:58.937Z,2.17
2022-10-07T08:25:29.592Z,2.50
2022-10-07T08:28:01.217Z,3.07
2022-10-07T08:30:30.088Z,3.67
2022-10-07T08:33:01.313Z,2.40
2022-10-07T08:35:30.033Z,2.33
2022-10-07T08:37:58.458Z,2.20
2022-10-07T08:40:26.954Z,3.60
2022-10-07T08:42:55.601Z,2.97
2022-10-07T08:45:31.796Z,2.87
2022-10-07T08:48:03.423Z,2.30
2022-10-07T08:50:43.292Z,3.10
2022-10-07T08:53:20.470Z,2.47
2022-10-07T08:55:53.821Z,4.07
2022-10-07T08:58:49.851Z,2.50
2022-10-07T09:01:33.982Z,2.20
2022-10-07T09:04:14.576Z,2.93
2022-10-07T09:06:46.688Z,2.63
2022-10-07T09:09:20.705Z,1.83
2022-10-07T09:11:51.081Z,2.13
2022-10-07T09:14:27.640Z,2.60
2022-10-07T09:17:02.694Z,2.27
2022-10-07T09:19:34.308Z,2.60
2022-10-07T09:22:08.406Z,2.67
2022-10-07T09:24:37.013Z,2.60
2022-10-07T09:27:14.203Z,2.00
2022-10-07T09:29:42.738Z,2.47
2022-10-07T09:32:14.888Z,2.50
2022-10-07T09:34:43.300Z,2.43
2022-10-07T09:37:16.498Z,2.40
2022-10-07T09:39:47.135Z,2.20
2022-10-07T09:42:36.491Z,2.00
2022-10-07T09:45:19.958Z,2.00
2022-10-07T09:47:54.155Z,2.03
2022-10-07T09:50:36.980Z,1.73
2022-10-07T09:53:07.488Z,1.63
2022-10-07T09:55:42.968Z,1.90
2022-10-07T09:58:19.980Z,2.00
2022-10-07T10:00:50.115Z,2.40
2022-10-07T10:03:20.302Z,2.03
2022-10-07T10:05:55.150Z,1.93
2022-10-07T10:08:26.800Z,2.03
2022-10-07T10:10:56.861Z,2.27
2022-10-07T10:13:32.189Z,2.83
2022-10-07T10:16:01.799Z,2.13
2022-10-07T10:18:36.032Z,2.10
2022-10-07T10:21:25.195Z,3.07
2022-10-07T10:23:54.805Z,2.03
2022-10-07T10:26:34.299Z,2.43
2022-10-07T10:29:18.177Z,2.53
2022-10-07T10:32:03.228Z,1.93
2022-10-07T10:34:42.375Z,2.23
2022-10-07T10:37:20.352Z,1.70
2022-10-07T10:40:00.288Z,2.33
2022-10-07T10:42:37.857Z,2.33
2022-10-07T10:45:15.621Z,2.50
2022-10-07T10:47:56.891Z,1.90
2022-10-07T10:50:32.020Z,1.87
2022-10-07T10:53:07.536Z,1.90
2022-10-07T10:56:00.299Z,2.20
2022-10-07T10:58:41.094Z,2.23
2022-10-07T11:01:17.759Z,2.17
2022-10-07T11:04:05.003Z,1.70
2022-10-07T11:06:38.583Z,1.73
2022-10-07T11:09:15.705Z,1.93
2022-10-07T11:11:45.429Z,2.80
2022-10-07T11:14:18.175Z,2.33
2022-10-07T11:16:49.483Z,2.90
2022-10-07T11:19:23.221Z,2.43
2022-10-07T11:21:54.524Z,1.70
2022-10-07T11:24:28.221Z,2.20
2022-10-07T11:27:00.573Z,2.27
2022-10-07T11:29:38.566Z,1.93
2022-10-07T11:32:12.140Z,1.60
2022-10-07T11:34:52.197Z,1.83
2022-10-07T11:37:30.371Z,1.60
2022-10-07T11:39:58.884Z,1.37
2022-10-07T11:42:29.832Z,1.40
2022-10-07T11:45:03.124Z,2.40
2022-10-07T11:47:36.263Z,1.50
2022-10-07T11:50:09.169Z,1.47
2022-10-07T11:52:44.794Z,1.57
2022-10-07T11:55:22.651Z,1.63
2022-10-07T11:57:55.585Z,1.67
2022-10-07T12:00:27.347Z,1.33
2022-10-07T12:02:56.239Z,1.67
2022-10-07T12:05:58.570Z,2.17
2022-10-07T12:08:35.125Z,1.60
2022-10-07T12:11:43.666Z,2.03
2022-10-07T12:14:41.005Z,1.20
2022-10-07T12:17:28.121Z,2.07
2022-10-07T12:20:34.501Z,1.50
2022-10-07T12:23:49.400Z,1.43
2022-10-07T12:26:52.624Z,1.23
2022-10-07T12:29:45.406Z,1.80
2022-10-07T12:33:00.839Z,1.50
2022-10-07T12:35:54.787Z,1.20
2022-10-07T12:38:28.651Z,1.70
2022-10-07T12:41:12.992Z,0.90
2022-10-07T12:43:56.295Z,1.77
2022-10-07T12:46:26.563Z,1.70
2022-10-07T12:48:59.599Z,1.80
2022-10-07T12:51:31.275Z,1.60
2022-10-07T12:54:01.410Z,1.30
2022-10-07T12:56:31.383Z,1.30
2022-10-07T12:59:44.444Z,2.20
2022-10-07T13:02:46.222Z,1.23
2022-10-07T13:06:03.815Z,1.63
2022-10-07T13:09:13.699Z,1.27
2022-10-07T13:12:07.673Z,1.40
2022-10-07T13:14:46.201Z,1.40
2022-10-07T13:17:26.127Z,1.40
2022-10-07T13:20:02.547Z,1.60
2022-10-07T13:22:31.832Z,1.47
2022-10-07T13:25:03.005Z,1.60
2022-10-07T13:27:32.909Z,1.30
2022-10-07T13:30:04.714Z,1.67
2022-10-07T13:32:34.828Z,0.93
2022-10-07T13:35:30.611Z,1.13
2022-10-07T13:37:59.108Z,1.30
2022-10-07T13:40:34.066Z,0.97
2022-10-07T13:43:04.783Z,1.03
2022-10-07T13:45:43.093Z,1.90
2022-10-07T13:48:16.977Z,1.53
2022-10-07T13:50:46.220Z,1.47
2022-10-07T13:53:22.268Z,1.80
2022-10-07T13:55:50.740Z,1.57
2022-10-07T13:58:20.133Z,1.27
2022-10-07T14:00:50.487Z,1.73
2022-10-07T14:03:19.639Z,2.30
2022-10-07T14:05:51.956Z,2.37
2022-10-07T14:08:22.318Z,1.30
2022-10-07T14:10:54.345Z,1.13
2022-10-07T14:13:23.319Z,1.50
2022-10-07T14:15:55.831Z,1.53
2022-10-07T14:18:25.119Z,1.70
2022-10-07T14:20:56.214Z,2.07
2022-10-07T14:23:28.486Z,2.00
2022-10-07T14:25:59.101Z,2.03
2022-10-07T14:28:32.223Z,1.10
2022-10-07T14:31:46.601Z,1.37
2022-10-07T14:34:34.572Z,1.90
2022-10-07T14:37:09.063Z,1.00
2022-10-07T14:39:38.820Z,1.40
2022-10-07T14:42:12.020Z,1.73
2022-10-07T14:44:43.795Z,0.93
2022-10-07T14:47:15.831Z,1.77
2022-10-07T14:49:44.580Z,1.83
2022-10-07T14:52:18.978Z,1.80
2022-10-07T14:54:47.756Z,1.60
2022-10-07T14:57:16.184Z,1.57
2022-10-07T14:59:45.418Z,1.60
2022-10-07T15:02:15.181Z,1.97
2022-10-07T15:04:45.511Z,2.07
2022-10-07T15:07:14.873Z,1.70
2022-10-07T15:09:44.432Z,1.70
2022-10-07T15:12:15.014Z,2.00
2022-10-07T15:14:43.900Z,1.57
2022-10-07T15:17:15.358Z,1.63
2022-10-07T15:19:43.830Z,1.33
2022-10-07T15:22:12.256Z,1.60
2022-10-07T15:24:40.872Z,1.60
2022-10-07T15:27:09.887Z,2.00
2022-10-07T15:29:39.284Z,2.23
2022-10-07T15:32:09.258Z,2.10
2022-10-07T15:34:39.023Z,1.70
2022-10-07T15:37:09.117Z,1.80
2022-10-07T15:39:39.785Z,1.90
2022-10-07T15:42:09.176Z,1.70
2022-10-07T15:44:37.584Z,3.10
2022-10-07T15:47:06.123Z,2.13
2022-10-07T15:49:36.076Z,2.30
2022-10-07T15:52:06.362Z,1.77
2022-10-07T15:54:35.501Z,1.70
2022-10-07T15:57:04.284Z,2.20
2022-10-07T15:59:32.764Z,2.23
2022-10-07T16:02:01.704Z,2.03
2022-10-07T16:04:30.299Z,1.73
2022-10-07T16:06:59.612Z,1.97
2022-10-07T16:09:29.467Z,2.10
2022-10-07T16:11:57.922Z,2.07
2022-10-07T16:14:26.404Z,1.90
2022-10-07T16:16:54.851Z,2.77
2022-10-07T16:19:23.265Z,2.33
2022-10-07T16:21:51.692Z,2.70
2022-10-07T16:24:21.768Z,2.00
2022-10-07T16:26:51.691Z,2.10
2022-10-07T16:29:39.838Z,2.10
2022-10-07T16:32:10.636Z,2.10
2022-10-07T16:34:41.868Z,2.27
2022-10-07T16:37:10.399Z,2.80
2022-10-07T16:39:38.884Z,2.73
2022-10-07T16:42:08.749Z,2.63
2022-10-07T16:44:37.285Z,2.30
2022-10-07T16:47:06.165Z,2.30
2022-10-07T16:49:36.373Z,1.97
2022-10-07T16:52:06.332Z,2.10
2022-10-07T16:54:35.462Z,1.90
2022-10-07T16:57:03.997Z,1.90
2022-10-07T16:59:33.774Z,2.00
2022-10-07T17:02:04.977Z,1.87
2022-10-07T17:04:33.474Z,2.10
2022-10-07T17:07:02.045Z,2.63
2022-10-07T17:09:30.507Z,2.77
2022-10-07T17:11:59.421Z,2.10
2022-10-07T17:14:31.417Z,2.70
2022-10-07T17:17:01.534Z,2.37
2022-10-07T17:19:30.083Z,2.57
2022-10-07T17:21:59.579Z,2.63
2022-10-07T17:24:28.257Z,2.00
2022-10-07T17:26:56.894Z,2.37
2022-10-07T17:29:26.231Z,3.10
2022-10-07T17:31:55.537Z,2.83
2022-10-07T17:34:25.340Z,2.43
2022-10-07T17:36:54.112Z,2.70
2022-10-07T17:39:22.831Z,3.47
2022-10-07T17:41:51.268Z,3.33
2022-10-07T17:44:21.389Z,3.07
2022-10-07T17:46:50.184Z,2.80
2022-10-07T17:49:18.755Z,3.20
2022-10-07T17:51:48.583Z,2.40
2022-10-07T17:54:17.182Z,2.50
2022-10-07T17:56:46.110Z,2.87
2022-10-07T17:59:14.681Z,2.83
2022-10-07T18:01:44.381Z,3.13
2022-10-07T18:04:15.111Z,3.20
2022-10-07T18:06:44.104Z,3.67
2022-10-07T18:09:18.600Z,2.87
2022-10-07T18:12:04.803Z,3.13
2022-10-07T18:14:53.814Z,3.20
2022-10-07T18:17:24.396Z,2.87
2022-10-07T18:19:53.130Z,2.70
2022-10-07T18:22:21.799Z,2.77
2022-10-07T18:24:52.229Z,2.53
2022-10-07T18:27:26.773Z,2.60
2022-10-07T18:29:55.904Z,2.67
2022-10-07T18:32:25.016Z,1.93
2022-10-07T18:34:53.521Z,3.07
2022-10-07T18:37:22.894Z,2.93
2022-10-07T18:39:52.704Z,3.03
2022-10-07T18:42:21.260Z,2.90
2022-10-07T18:44:50.543Z,2.50
2022-10-07T18:47:18.984Z,2.40
2022-10-07T18:49:47.416Z,4.00
2022-10-07T18:52:16.008Z,4.97
2022-10-07T18:54:44.401Z,2.60
2022-10-07T18:57:14.161Z,2.83
2022-10-07T18:59:42.563Z,2.53
2022-10-07T19:02:12.396Z,2.80
2022-10-07T19:04:41.568Z,2.90
2022-10-07T19:07:10.018Z,3.07
2022-10-07T19:09:38.437Z,2.97
2022-10-07T19:12:27.341Z,3.60
2022-10-07T19:14:56.216Z,2.50
2022-10-07T19:17:24.656Z,2.63
2022-10-07T19:19:53.148Z,2.87
2022-10-07T19:22:21.625Z,2.87
2022-10-07T19:25:07.454Z,3.07
2022-10-07T19:27:35.906Z,2.57
2022-10-07T19:30:06.525Z,2.30
2022-10-07T19:32:34.959Z,2.40
2022-10-07T19:35:03.345Z,2.43
2022-10-07T19:37:31.777Z,2.40
2022-10-07T19:40:00.254Z,3.07
2022-10-07T19:42:28.844Z,2.90
2022-10-07T19:44:57.210Z,3.27
2022-10-07T19:47:27.018Z,3.07
2022-10-07T19:49:55.418Z,2.73
2022-10-07T19:52:23.828Z,2.20
2022-10-07T19:54:52.369Z,2.03
2022-10-07T19:57:21.506Z,2.53
2022-10-07T19:59:49.983Z,2.40
2022-10-07T20:02:19.695Z,3.47
2022-10-07T20:04:49.527Z,2.97
2022-10-07T20:07:18.136Z,2.63
2022-10-07T20:09:46.532Z,2.30
2022-10-07T20:12:14.899Z,2.33
2022-10-07T20:14:43.867Z,2.10
2022-10-07T20:17:12.324Z,3.07
2022-10-07T20:19:40.752Z,3.00
2022-10-07T20:22:11.220Z,2.10
2022-10-07T20:24:39.878Z,2.53
2022-10-07T20:27:08.313Z,3.13
2022-10-07T20:29:56.719Z,2.90
2022-10-07T20:32:26.011Z,2.67
2022-10-07T20:34:55.075Z,2.67
2022-10-07T20:37:24.900Z,2.97
2022-10-07T20:40:11.087Z,2.53
2022-10-07T20:42:45.991Z,2.57
2022-10-07T20:45:15.432Z,2.63
2022-10-07T20:47:44.396Z,2.67
2022-10-07T20:50:12.947Z,3.00
2022-10-07T20:52:42.753Z,2.33
2022-10-07T20:55:13.914Z,2.27
2022-10-07T20:57:42.290Z,2.47
2022-10-07T21:00:16.833Z,1.83
2022-10-07T21:02:45.884Z,2.10
2022-10-07T21:05:14.752Z,1.60
2022-10-07T21:07:44.732Z,1.70
2022-10-07T21:10:13.204Z,1.87
2022-10-07T21:12:41.642Z,1.50
2022-10-07T21:15:10.803Z,2.03
2022-10-07T21:17:40.659Z,2.17
2022-10-07T21:20:09.742Z,1.83
2022-10-07T21:22:38.161Z,2.10
2022-10-07T21:25:11.974Z,1.63
2022-10-07T21:27:40.349Z,1.53
2022-10-07T21:30:10.353Z,2.13
2022-10-07T21:32:38.883Z,1.87
2022-10-07T21:35:08.080Z,2.33
2022-10-07T21:37:36.552Z,1.80
2022-10-07T21:40:05.183Z,2.27
2022-10-07T21:42:34.954Z,1.97
2022-10-07T21:45:03.442Z,1.87
2022-10-07T21:47:31.974Z,2.20
2022-10-07T21:50:00.495Z,2.03
2022-10-07T21:52:29.402Z,2.37
2022-10-07T21:54:57.819Z,2.87
2022-10-07T21:57:26.242Z,2.03
2022-10-07T21:59:55.997Z,1.90
2022-10-07T22:02:24.504Z,1.97
2022-10-07T22:04:52.933Z,1.90
2022-10-07T22:07:38.597Z,2.00
2022-10-07T22:10:08.218Z,2.50
2022-10-07T22:12:36.641Z,2.00
2022-10-07T22:15:08.174Z,1.77
2022-10-07T22:17:36.643Z,2.00
2022-10-07T22:20:05.615Z,1.87
2022-10-07T22:22:34.050Z,2.43
2022-10-07T22:25:02.750Z,2.43
2022-10-07T22:27:31.144Z,2.50
2022-10-07T22:29:59.493Z,2.10
2022-10-07T22:32:29.264Z,2.33
2022-10-07T22:35:14.996Z,2.80
2022-10-07T22:37:44.914Z,2.00
2022-10-07T22:40:13.432Z,2.10
2022-10-07T22:42:45.947Z,2.37
2022-10-07T22:45:14.887Z,2.30
2022-10-07T22:47:44.952Z,1.80
2022-10-07T22:50:15.936Z,2.07
2022-10-07T22:52:44.696Z,2.33
2022-10-07T22:55:13.354Z,2.63
2022-10-07T22:57:41.744Z,2.53
2022-10-07T23:00:11.543Z,2.17
2022-10-07T23:02:40.002Z,2.63
2022-10-07T23:05:10.786Z,2.00
2022-10-07T23:07:39.848Z,2.17
2022-10-07T23:10:15.783Z,1.80
2022-10-07T23:12:47.386Z,1.87
2022-10-07T23:15:19.591Z,1.90
2022-10-07T23:17:48.056Z,1.60
2022-10-07T23:20:19.127Z,2.03
2022-10-07T23:22:47.844Z,1.90
2022-10-07T23:25:16.479Z,1.50
2022-10-07T23:27:44.901Z,2.03
2022-10-07T23:30:13.860Z,1.83
2022-10-07T23:32:45.762Z,2.27
2022-10-07T23:35:14.420Z,1.83
2022-10-07T23:37:45.288Z,2.33
2022-10-07T23:40:13.752Z,2.20
2022-10-07T23:42:42.138Z,2.30
2022-10-07T23:45:13.335Z,2.23
2022-10-07T23:47:42.252Z,1.83
2022-10-07T23:50:13.096Z,2.13
2022-10-07T23:52:41.495Z,1.87
2022-10-07T23:55:12.763Z,2.30
2022-10-07T23:57:41.322Z,2.10
